sensor_id;sensor_type;location;lat;lon;timestamp;temperature;humidity
57026;DHT22;43961;52.940;6.834;2023-07-30T00:01:57;15.40;99.90
57026;DHT22;43961;52.940;6.834;2023-07-30T00:09:15;15.40;99.90
57026;DHT22;43961;52.940;6.834;2023-07-30T00:21:25;15.40;99.90
57026;DHT22;43961;52.940;6.834;2023-07-30T00:26:17;15.20;99.90
57026;DHT22;43961;52.940;6.834;2023-07-30T00:36:01;15.20;99.90
57026;DHT22;43961;52.940;6.834;2023-07-30T00:43:19;15.00;99.90
57026;DHT22;43961;52.940;6.834;2023-07-30T00:45:45;15.10;99.90
57026;DHT22;43961;52.940;6.834;2023-07-30T01:39:32;14.60;99.90
57026;DHT22;43961;52.940;6.834;2023-07-30T01:49:17;14.60;99.90
57026;DHT22;43961;52.940;6.834;2023-07-30T03:34:08;14.50;99.90
57026;DHT22;43961;52.940;6.834;2023-07-30T05:21:23;14.90;99.90
57026;DHT22;43961;52.940;6.834;2023-07-30T06:28:05;16.00;99.90
57026;DHT22;43961;52.940;6.834;2023-07-30T06:42:46;16.60;99.90
57026;DHT22;43961;52.940;6.834;2023-07-30T06:50:05;16.50;99.90
57026;DHT22;43961;52.940;6.834;2023-07-30T07:19:22;17.40;99.90
57026;DHT22;43961;52.940;6.834;2023-07-30T07:29:06;17.80;99.90
57026;DHT22;43961;52.940;6.834;2023-07-30T07:38:49;18.10;99.90
57026;DHT22;43961;52.940;6.834;2023-07-30T07:43:46;18.40;99.90
57026;DHT22;43961;52.940;6.834;2023-07-30T07:46:12;18.50;99.90
57026;DHT22;43961;52.940;6.834;2023-07-30T07:55:59;19.30;99.90
57026;DHT22;43961;52.940;6.834;2023-07-30T08:00:57;19.40;99.90
57026;DHT22;43961;52.940;6.834;2023-07-30T08:03:23;19.30;99.90
57026;DHT22;43961;52.940;6.834;2023-07-30T08:05:49;19.40;99.90
57026;DHT22;43961;52.940;6.834;2023-07-30T08:08:16;19.50;99.90
57026;DHT22;43961;52.940;6.834;2023-07-30T08:13:13;19.90;99.90
57026;DHT22;43961;52.940;6.834;2023-07-30T08:18:05;20.40;99.90
57026;DHT22;43961;52.940;6.834;2023-07-30T08:22:57;20.60;99.90
57026;DHT22;43961;52.940;6.834;2023-07-30T08:25:22;21.00;99.90
57026;DHT22;43961;52.940;6.834;2023-07-30T08:27:48;20.70;99.90
57026;DHT22;43961;52.940;6.834;2023-07-30T08:30:14;20.90;99.90
57026;DHT22;43961;52.940;6.834;2023-07-30T08:32:39;20.90;99.90
57026;DHT22;43961;52.940;6.834;2023-07-30T08:35:07;21.10;99.90
57026;DHT22;43961;52.940;6.834;2023-07-30T08:37:33;21.30;99.90
57026;DHT22;43961;52.940;6.834;2023-07-30T08:39:59;21.30;99.90
57026;DHT22;43961;52.940;6.834;2023-07-30T08:42:24;21.40;99.90
57026;DHT22;43961;52.940;6.834;2023-07-30T08:44:50;21.00;99.90
57026;DHT22;43961;52.940;6.834;2023-07-30T08:47:16;20.90;99.90
57026;DHT22;43961;52.940;6.834;2023-07-30T08:49:41;21.10;99.90
57026;DHT22;43961;52.940;6.834;2023-07-30T08:52:09;20.70;99.90
57026;DHT22;43961;52.940;6.834;2023-07-30T08:54:36;20.90;99.90
57026;DHT22;43961;52.940;6.834;2023-07-30T08:57:03;20.80;99.90
57026;DHT22;43961;52.940;6.834;2023-07-30T08:59:42;20.60;99.90
57026;DHT22;43961;52.940;6.834;2023-07-30T09:02:13;20.60;99.90
57026;DHT22;43961;52.940;6.834;2023-07-30T09:04:46;20.30;99.90
57026;DHT22;43961;52.940;6.834;2023-07-30T09:07:13;20.60;99.90
57026;DHT22;43961;52.940;6.834;2023-07-30T09:09:39;20.30;99.90
57026;DHT22;43961;52.940;6.834;2023-07-30T09:12:13;19.90;99.90
57026;DHT22;43961;52.940;6.834;2023-07-30T09:17:10;19.50;99.90
57026;DHT22;43961;52.940;6.834;2023-07-30T09:22:06;19.30;99.90
57026;DHT22;43961;52.940;6.834;2023-07-30T09:24:32;18.80;99.90
57026;DHT22;43961;52.940;6.834;2023-07-30T09:27:02;19.10;99.90
57026;DHT22;43961;52.940;6.834;2023-07-30T09:29:28;18.70;99.90
57026;DHT22;43961;52.940;6.834;2023-07-30T09:31:54;18.40;99.90
57026;DHT22;43961;52.940;6.834;2023-07-30T09:36:50;18.40;99.90
57026;DHT22;43961;52.940;6.834;2023-07-30T09:39:22;18.30;99.90
57026;DHT22;43961;52.940;6.834;2023-07-30T09:41:49;18.00;99.90
57026;DHT22;43961;52.940;6.834;2023-07-30T09:44:16;18.20;99.90
57026;DHT22;43961;52.940;6.834;2023-07-30T09:54:11;18.10;99.90
57026;DHT22;43961;52.940;6.834;2023-07-30T09:56:37;18.10;99.90
57026;DHT22;43961;52.940;6.834;2023-07-30T10:01:38;17.70;99.90
57026;DHT22;43961;52.940;6.834;2023-07-30T10:16:26;16.90;99.90
57026;DHT22;43961;52.940;6.834;2023-07-30T11:06:26;19.60;99.90
57026;DHT22;43961;52.940;6.834;2023-07-30T11:11:18;20.10;99.90
57026;DHT22;43961;52.940;6.834;2023-07-30T11:13:46;20.20;99.90
57026;DHT22;43961;52.940;6.834;2023-07-30T11:16:14;20.10;99.90
57026;DHT22;43961;52.940;6.834;2023-07-30T11:18:40;20.20;99.90
57026;DHT22;43961;52.940;6.834;2023-07-30T11:21:11;20.70;99.90
57026;DHT22;43961;52.940;6.834;2023-07-30T11:23:40;20.70;99.90
57026;DHT22;43961;52.940;6.834;2023-07-30T11:26:13;20.70;99.90
57026;DHT22;43961;52.940;6.834;2023-07-30T11:31:17;20.80;99.90
57026;DHT22;43961;52.940;6.834;2023-07-30T11:33:46;20.40;99.90
57026;DHT22;43961;52.940;6.834;2023-07-30T11:36:15;20.40;99.90
57026;DHT22;43961;52.940;6.834;2023-07-30T11:38:41;20.30;99.90
57026;DHT22;43961;52.940;6.834;2023-07-30T11:41:09;20.30;99.90
57026;DHT22;43961;52.940;6.834;2023-07-30T11:43:42;20.70;99.90
57026;DHT22;43961;52.940;6.834;2023-07-30T11:46:10;20.80;99.90
57026;DHT22;43961;52.940;6.834;2023-07-30T11:48:36;21.20;99.90
57026;DHT22;43961;52.940;6.834;2023-07-30T11:51:03;21.60;99.90
57026;DHT22;43961;52.940;6.834;2023-07-30T11:53:48;21.40;99.90
57026;DHT22;43961;52.940;6.834;2023-07-30T11:56:23;21.60;99.90
57026;DHT22;43961;52.940;6.834;2023-07-30T11:58:51;21.80;99.90
57026;DHT22;43961;52.940;6.834;2023-07-30T12:01:17;22.30;99.90
57026;DHT22;43961;52.940;6.834;2023-07-30T12:03:44;22.10;99.90
57026;DHT22;43961;52.940;6.834;2023-07-30T12:06:10;22.20;99.90
57026;DHT22;43961;52.940;6.834;2023-07-30T12:08:37;22.60;99.90
57026;DHT22;43961;52.940;6.834;2023-07-30T12:11:07;22.20;99.90
57026;DHT22;43961;52.940;6.834;2023-07-30T12:13:33;22.20;99.90
57026;DHT22;43961;52.940;6.834;2023-07-30T12:16:00;22.50;99.90
57026;DHT22;43961;52.940;6.834;2023-07-30T12:18:26;22.30;99.90
57026;DHT22;43961;52.940;6.834;2023-07-30T12:20:54;22.70;99.90
57026;DHT22;43961;52.940;6.834;2023-07-30T12:23:20;22.50;99.90
57026;DHT22;43961;52.940;6.834;2023-07-30T12:25:46;22.60;99.90
57026;DHT22;43961;52.940;6.834;2023-07-30T12:28:13;22.20;99.90
57026;DHT22;43961;52.940;6.834;2023-07-30T12:30:39;21.90;99.90
57026;DHT22;43961;52.940;6.834;2023-07-30T12:33:06;21.50;99.90
57026;DHT22;43961;52.940;6.834;2023-07-30T12:35:32;21.10;99.90
57026;DHT22;43961;52.940;6.834;2023-07-30T12:37:59;20.90;99.90
57026;DHT22;43961;52.940;6.834;2023-07-30T12:40:25;21.10;99.90
57026;DHT22;43961;52.940;6.834;2023-07-30T12:45:18;20.70;99.90
57026;DHT22;43961;52.940;6.834;2023-07-30T12:47:44;21.00;99.90
57026;DHT22;43961;52.940;6.834;2023-07-30T12:50:11;21.50;99.90
57026;DHT22;43961;52.940;6.834;2023-07-30T12:52:36;21.20;99.90
57026;DHT22;43961;52.940;6.834;2023-07-30T12:55:02;21.30;99.90
57026;DHT22;43961;52.940;6.834;2023-07-30T12:57:30;21.10;99.90
57026;DHT22;43961;52.940;6.834;2023-07-30T12:59:56;21.10;99.90
57026;DHT22;43961;52.940;6.834;2023-07-30T13:02:22;21.00;99.90
57026;DHT22;43961;52.940;6.834;2023-07-30T13:04:47;21.00;99.90
57026;DHT22;43961;52.940;6.834;2023-07-30T13:07:13;20.70;99.90
57026;DHT22;43961;52.940;6.834;2023-07-30T13:09:39;20.80;99.90
57026;DHT22;43961;52.940;6.834;2023-07-30T13:12:05;20.10;99.90
57026;DHT22;43961;52.940;6.834;2023-07-30T13:14:31;19.80;99.90
57026;DHT22;43961;52.940;6.834;2023-07-30T13:16:57;19.90;99.90
57026;DHT22;43961;52.940;6.834;2023-07-30T13:21:48;19.90;99.90
57026;DHT22;43961;52.940;6.834;2023-07-30T13:24:14;19.80;99.90
57026;DHT22;43961;52.940;6.834;2023-07-30T13:26:40;19.50;99.90
57026;DHT22;43961;52.940;6.834;2023-07-30T13:29:05;19.80;99.90
57026;DHT22;43961;52.940;6.834;2023-07-30T13:31:31;19.40;99.90
57026;DHT22;43961;52.940;6.834;2023-07-30T13:33:57;19.30;99.90
57026;DHT22;43961;52.940;6.834;2023-07-30T13:36:22;19.70;99.90
57026;DHT22;43961;52.940;6.834;2023-07-30T13:38:48;19.30;99.90
57026;DHT22;43961;52.940;6.834;2023-07-30T13:41:14;19.30;99.90
57026;DHT22;43961;52.940;6.834;2023-07-30T13:43:40;19.20;99.90
57026;DHT22;43961;52.940;6.834;2023-07-30T13:46:06;19.50;99.90
57026;DHT22;43961;52.940;6.834;2023-07-30T13:48:31;19.30;99.90
57026;DHT22;43961;52.940;6.834;2023-07-30T13:53:23;19.00;99.90
57026;DHT22;43961;52.940;6.834;2023-07-30T13:58:15;19.10;99.90
57026;DHT22;43961;52.940;6.834;2023-07-30T14:00:41;19.20;99.90
57026;DHT22;43961;52.940;6.834;2023-07-30T14:03:10;19.20;99.90
57026;DHT22;43961;52.940;6.834;2023-07-30T14:05:37;19.40;99.90
57026;DHT22;43961;52.940;6.834;2023-07-30T14:08:03;19.70;99.90
57026;DHT22;43961;52.940;6.834;2023-07-30T14:10:29;19.70;99.90
57026;DHT22;43961;52.940;6.834;2023-07-30T14:12:55;20.10;99.90
57026;DHT22;43961;52.940;6.834;2023-07-30T14:15:20;20.00;99.90
57026;DHT22;43961;52.940;6.834;2023-07-30T14:17:46;19.90;99.90
57026;DHT22;43961;52.940;6.834;2023-07-30T14:20:12;19.90;99.90
57026;DHT22;43961;52.940;6.834;2023-07-30T14:22:37;19.90;99.90
57026;DHT22;43961;52.940;6.834;2023-07-30T14:25:04;19.90;99.90
57026;DHT22;43961;52.940;6.834;2023-07-30T14:29:55;20.30;99.90
57026;DHT22;43961;52.940;6.834;2023-07-30T14:32:22;20.10;99.90
57026;DHT22;43961;52.940;6.834;2023-07-30T14:34:48;20.10;99.90
57026;DHT22;43961;52.940;6.834;2023-07-30T14:37:14;19.90;99.90
57026;DHT22;43961;52.940;6.834;2023-07-30T14:46:59;19.90;99.90
57026;DHT22;43961;52.940;6.834;2023-07-30T14:49:25;20.10;99.90
57026;DHT22;43961;52.940;6.834;2023-07-30T14:51:51;19.80;99.90
57026;DHT22;43961;52.940;6.834;2023-07-30T14:54:17;19.80;99.90
57026;DHT22;43961;52.940;6.834;2023-07-30T14:56:43;20.10;99.90
57026;DHT22;43961;52.940;6.834;2023-07-30T14:59:10;20.20;99.90
57026;DHT22;43961;52.940;6.834;2023-07-30T15:04:02;19.90;99.90
57026;DHT22;43961;52.940;6.834;2023-07-30T15:06:30;20.20;99.90
57026;DHT22;43961;52.940;6.834;2023-07-30T15:12:27;20.10;99.90
57026;DHT22;43961;52.940;6.834;2023-07-30T15:14:53;20.10;99.90
57026;DHT22;43961;52.940;6.834;2023-07-30T15:17:18;19.80;99.90
57026;DHT22;43961;52.940;6.834;2023-07-30T15:22:12;20.10;99.90
57026;DHT22;43961;52.940;6.834;2023-07-30T15:24:38;19.70;99.90
57026;DHT22;43961;52.940;6.834;2023-07-30T15:27:04;20.00;99.90
57026;DHT22;43961;52.940;6.834;2023-07-30T15:29:30;19.60;99.90
57026;DHT22;43961;52.940;6.834;2023-07-30T15:34:22;19.50;99.90
57026;DHT22;43961;52.940;6.834;2023-07-30T15:36:48;19.80;99.90
57026;DHT22;43961;52.940;6.834;2023-07-30T15:39:14;19.40;99.90
57026;DHT22;43961;52.940;6.834;2023-07-30T15:41:39;19.30;99.90
57026;DHT22;43961;52.940;6.834;2023-07-30T15:51:24;19.30;99.90
57026;DHT22;43961;52.940;6.834;2023-07-30T15:53:51;19.30;99.90
57026;DHT22;43961;52.940;6.834;2023-07-30T15:58:43;19.30;99.90
57026;DHT22;43961;52.940;6.834;2023-07-30T16:06:04;19.60;99.90
57026;DHT22;43961;52.940;6.834;2023-07-30T16:08:33;19.70;99.90
57026;DHT22;43961;52.940;6.834;2023-07-30T16:11:08;19.50;99.90
57026;DHT22;43961;52.940;6.834;2023-07-30T16:13:34;19.80;99.90
57026;DHT22;43961;52.940;6.834;2023-07-30T16:18:34;19.90;99.90
57026;DHT22;43961;52.940;6.834;2023-07-30T16:21:04;19.90;99.90
57026;DHT22;43961;52.940;6.834;2023-07-30T16:23:31;19.90;99.90
57026;DHT22;43961;52.940;6.834;2023-07-30T16:28:22;19.70;99.90
57026;DHT22;43961;52.940;6.834;2023-07-30T16:30:49;19.90;99.90
57026;DHT22;43961;52.940;6.834;2023-07-30T16:33:15;19.90;99.90
57026;DHT22;43961;52.940;6.834;2023-07-30T16:35:41;20.00;99.90
57026;DHT22;43961;52.940;6.834;2023-07-30T16:38:07;19.70;99.90
57026;DHT22;43961;52.940;6.834;2023-07-30T16:40:32;20.00;99.90
57026;DHT22;43961;52.940;6.834;2023-07-30T16:59:29;19.60;99.90
57026;DHT22;43961;52.940;6.834;2023-07-30T17:01:55;19.50;99.90
57026;DHT22;43961;52.940;6.834;2023-07-30T17:04:21;19.50;99.90
57026;DHT22;43961;52.940;6.834;2023-07-30T17:06:46;19.70;99.90
57026;DHT22;43961;52.940;6.834;2023-07-30T17:09:12;19.60;99.90
57026;DHT22;43961;52.940;6.834;2023-07-30T17:11:38;19.40;99.90
57026;DHT22;43961;52.940;6.834;2023-07-30T17:14:03;19.50;99.90
57026;DHT22;43961;52.940;6.834;2023-07-30T17:18:55;19.60;99.90
57026;DHT22;43961;52.940;6.834;2023-07-30T17:21:20;19.30;99.90
57026;DHT22;43961;52.940;6.834;2023-07-30T17:23:48;19.40;99.90
57026;DHT22;43961;52.940;6.834;2023-07-30T17:26:14;19.40;99.90
57026;DHT22;43961;52.940;6.834;2023-07-30T17:28:40;19.40;99.90
57026;DHT22;43961;52.940;6.834;2023-07-30T17:31:05;19.60;99.90
57026;DHT22;43961;52.940;6.834;2023-07-30T17:33:31;19.30;99.90
57026;DHT22;43961;52.940;6.834;2023-07-30T17:36:01;19.20;99.90
57026;DHT22;43961;52.940;6.834;2023-07-30T17:38:27;19.30;99.90
57026;DHT22;43961;52.940;6.834;2023-07-30T17:40:54;19.20;99.90
57026;DHT22;43961;52.940;6.834;2023-07-30T17:43:20;19.00;99.90
57026;DHT22;43961;52.940;6.834;2023-07-30T17:45:47;19.20;99.90
57026;DHT22;43961;52.940;6.834;2023-07-30T17:48:12;19.00;99.90
57026;DHT22;43961;52.940;6.834;2023-07-30T17:50:38;19.00;99.90
57026;DHT22;43961;52.940;6.834;2023-07-30T17:53:05;19.00;99.90
57026;DHT22;43961;52.940;6.834;2023-07-30T17:55:31;19.10;99.90
57026;DHT22;43961;52.940;6.834;2023-07-30T17:57:57;19.00;99.90
57026;DHT22;43961;52.940;6.834;2023-07-30T18:00:27;18.90;99.90
57026;DHT22;43961;52.940;6.834;2023-07-30T18:02:53;18.90;99.90
57026;DHT22;43961;52.940;6.834;2023-07-30T18:05:19;18.90;99.90
57026;DHT22;43961;52.940;6.834;2023-07-30T18:07:44;19.00;99.90
57026;DHT22;43961;52.940;6.834;2023-07-30T18:10:10;18.80;99.90
57026;DHT22;43961;52.940;6.834;2023-07-30T18:12:36;18.60;99.90
57026;DHT22;43961;52.940;6.834;2023-07-30T18:15:01;18.80;99.90
57026;DHT22;43961;52.940;6.834;2023-07-30T18:17:27;18.70;99.90
57026;DHT22;43961;52.940;6.834;2023-07-30T18:19:55;18.70;99.90
57026;DHT22;43961;52.940;6.834;2023-07-30T18:22:20;18.80;99.90
57026;DHT22;43961;52.940;6.834;2023-07-30T18:24:46;18.50;99.90
57026;DHT22;43961;52.940;6.834;2023-07-30T18:27:11;18.40;99.90
57026;DHT22;43961;52.940;6.834;2023-07-30T18:29:37;18.30;99.90
57026;DHT22;43961;52.940;6.834;2023-07-30T18:32:07;18.40;99.90
57026;DHT22;43961;52.940;6.834;2023-07-30T18:34:37;18.50;99.90
57026;DHT22;43961;52.940;6.834;2023-07-30T18:37:03;18.20;99.90
57026;DHT22;43961;52.940;6.834;2023-07-30T18:39:30;18.50;99.90
57026;DHT22;43961;52.940;6.834;2023-07-30T18:41:56;18.20;99.90
57026;DHT22;43961;52.940;6.834;2023-07-30T18:44:22;18.20;99.90
57026;DHT22;43961;52.940;6.834;2023-07-30T18:46:47;18.10;99.90
57026;DHT22;43961;52.940;6.834;2023-07-30T18:49:13;18.20;99.90
57026;DHT22;43961;52.940;6.834;2023-07-30T18:54:05;18.10;99.90
57026;DHT22;43961;52.940;6.834;2023-07-30T18:56:30;17.90;99.90
57026;DHT22;43961;52.940;6.834;2023-07-30T18:58:56;18.10;99.90
57026;DHT22;43961;52.940;6.834;2023-07-30T19:01:23;17.80;99.90
57026;DHT22;43961;52.940;6.834;2023-07-30T19:03:52;18.10;99.90
57026;DHT22;43961;52.940;6.834;2023-07-30T19:16:02;17.70;99.90
57026;DHT22;43961;52.940;6.834;2023-07-30T19:18:28;17.70;99.90
57026;DHT22;43961;52.940;6.834;2023-07-30T19:23:20;17.70;99.90
57026;DHT22;43961;52.940;6.834;2023-07-30T19:25:49;17.80;99.90
57026;DHT22;43961;52.940;6.834;2023-07-30T19:28:16;17.70;99.90
57026;DHT22;43961;52.940;6.834;2023-07-30T19:30:42;17.70;99.90
57026;DHT22;43961;52.940;6.834;2023-07-30T19:50:11;17.20;99.90
57026;DHT22;43961;52.940;6.834;2023-07-30T19:52:36;17.20;99.90
57026;DHT22;43961;52.940;6.834;2023-07-30T20:07:12;17.20;99.90
57026;DHT22;43961;52.940;6.834;2023-07-30T20:09:41;17.10;99.90
57026;DHT22;43961;52.940;6.834;2023-07-30T20:14:33;17.00;99.90
57026;DHT22;43961;52.940;6.834;2023-07-30T20:21:51;16.80;99.90
57026;DHT22;43961;52.940;6.834;2023-07-30T20:26:53;16.80;99.90
57026;DHT22;43961;52.940;6.834;2023-07-30T20:49:44;16.90;99.90
57026;DHT22;43961;52.940;6.834;2023-07-30T21:16:32;16.70;99.90
57026;DHT22;43961;52.940;6.834;2023-07-30T21:23:50;16.70;99.90
57026;DHT22;43961;52.940;6.834;2023-07-30T21:36:02;16.70;99.90
57026;DHT22;43961;52.940;6.834;2023-07-30T21:43:21;16.50;99.90
57026;DHT22;43961;52.940;6.834;2023-07-30T22:10:16;16.50;99.90
57026;DHT22;43961;52.940;6.834;2023-07-30T22:30:43;16.70;99.90
